sensor_id;sensor_type;location;lat;lon;timestamp;P1;durP1;ratioP1;P2;durP2;ratioP2
56427;SDS011;42331;53.578;9.760;2023-04-01T00:00:18;15.38;;;7.07;;
56427;SDS011;42331;53.578;9.760;2023-04-01T00:02:50;10.68;;;5.70;;
56427;SDS011;42331;53.578;9.760;2023-04-01T00:05:20;15.70;;;6.32;;
56427;SDS011;42331;53.578;9.760;2023-04-01T00:07:51;12.00;;;5.87;;
56427;SDS011;42331;53.578;9.760;2023-04-01T00:10:22;13.00;;;5.80;;
56427;SDS011;42331;53.578;9.760;2023-04-01T00:12:53;12.85;;;6.13;;
56427;SDS011;42331;53.578;9.760;2023-04-01T00:15:23;12.63;;;6.32;;
56427;SDS011;42331;53.578;9.760;2023-04-01T00:17:54;17.25;;;5.80;;
56427;SDS011;42331;53.578;9.760;2023-04-01T00:20:25;12.80;;;5.47;;
56427;SDS011;42331;53.578;9.760;2023-04-01T00:22:56;11.60;;;5.88;;
56427;SDS011;42331;53.578;9.760;2023-04-01T00:25:27;16.67;;;6.07;;
56427;SDS011;42331;53.578;9.760;2023-04-01T00:27:58;10.75;;;5.43;;
56427;SDS011;42331;53.578;9.760;2023-04-01T00:30:29;11.98;;;5.00;;
56427;SDS011;42331;53.578;9.760;2023-04-01T00:33:00;10.68;;;5.35;;
56427;SDS011;42331;53.578;9.760;2023-04-01T00:35:31;10.77;;;5.57;;
56427;SDS011;42331;53.578;9.760;2023-04-01T00:38:03;12.45;;;5.28;;
56427;SDS011;42331;53.578;9.760;2023-04-01T00:40:35;12.18;;;5.55;;
56427;SDS011;42331;53.578;9.760;2023-04-01T00:43:16;10.70;;;5.40;;
56427;SDS011;42331;53.578;9.760;2023-04-01T00:45:49;16.77;;;5.20;;
56427;SDS011;42331;53.578;9.760;2023-04-01T00:48:22;11.02;;;5.28;;
56427;SDS011;42331;53.578;9.760;2023-04-01T00:51:02;12.40;;;4.90;;
56427;SDS011;42331;53.578;9.760;2023-04-01T00:53:41;12.68;;;5.22;;
56427;SDS011;42331;53.578;9.760;2023-04-01T00:56:30;12.10;;;5.35;;
56427;SDS011;42331;53.578;9.760;2023-04-01T00:59:16;14.05;;;5.05;;
56427;SDS011;42331;53.578;9.760;2023-04-01T01:01:52;12.52;;;5.80;;
56427;SDS011;42331;53.578;9.760;2023-04-01T01:04:24;13.70;;;5.75;;
56427;SDS011;42331;53.578;9.760;2023-04-01T01:12:29;15.48;;;5.63;;
56427;SDS011;42331;53.578;9.760;2023-04-01T01:15:30;13.18;;;6.00;;
56427;SDS011;42331;53.578;9.760;2023-04-01T01:21:11;12.75;;;6.38;;
56427;SDS011;42331;53.578;9.760;2023-04-01T01:37:55;14.82;;;6.90;;
56427;SDS011;42331;53.578;9.760;2023-04-01T01:40:31;15.60;;;7.50;;
56427;SDS011;42331;53.578;9.760;2023-04-01T01:43:05;16.55;;;7.65;;
56427;SDS011;42331;53.578;9.760;2023-04-01T01:45:40;13.95;;;7.22;;
56427;SDS011;42331;53.578;9.760;2023-04-01T01:48:17;17.98;;;7.93;;
56427;SDS011;42331;53.578;9.760;2023-04-01T01:50:50;14.48;;;8.20;;
56427;SDS011;42331;53.578;9.760;2023-04-01T01:53:21;19.30;;;9.25;;
56427;SDS011;42331;53.578;9.760;2023-04-01T01:55:52;19.20;;;10.88;;
56427;SDS011;42331;53.578;9.760;2023-04-01T01:58:25;19.77;;;10.30;;
56427;SDS011;42331;53.578;9.760;2023-04-01T02:01:12;20.08;;;10.18;;
56427;SDS011;42331;53.578;9.760;2023-04-01T02:03:50;20.15;;;10.10;;
56427;SDS011;42331;53.578;9.760;2023-04-01T02:06:23;21.13;;;9.90;;
56427;SDS011;42331;53.578;9.760;2023-04-01T02:09:01;16.58;;;9.20;;
56427;SDS011;42331;53.578;9.760;2023-04-01T02:11:39;18.73;;;9.27;;
56427;SDS011;42331;53.578;9.760;2023-04-01T02:14:22;20.95;;;9.48;;
56427;SDS011;42331;53.578;9.760;2023-04-01T02:17:22;16.92;;;9.43;;
56427;SDS011;42331;53.578;9.760;2023-04-01T02:20:08;20.73;;;10.25;;
56427;SDS011;42331;53.578;9.760;2023-04-01T02:22:48;24.30;;;10.23;;
56427;SDS011;42331;53.578;9.760;2023-04-01T02:25:27;18.73;;;10.52;;
56427;SDS011;42331;53.578;9.760;2023-04-01T02:28:00;17.88;;;10.25;;
56427;SDS011;42331;53.578;9.760;2023-04-01T02:30:35;17.75;;;10.23;;
56427;SDS011;42331;53.578;9.760;2023-04-01T02:33:08;17.60;;;9.73;;
56427;SDS011;42331;53.578;9.760;2023-04-01T02:35:39;18.73;;;10.52;;
56427;SDS011;42331;53.578;9.760;2023-04-01T02:38:10;20.33;;;10.80;;
56427;SDS011;42331;53.578;9.760;2023-04-01T02:40:59;20.63;;;10.20;;
56427;SDS011;42331;53.578;9.760;2023-04-01T02:43:30;20.65;;;9.65;;
56427;SDS011;42331;53.578;9.760;2023-04-01T02:46:01;19.70;;;10.50;;
56427;SDS011;42331;53.578;9.760;2023-04-01T02:48:32;20.48;;;10.70;;
56427;SDS011;42331;53.578;9.760;2023-04-01T02:51:03;19.30;;;10.27;;
56427;SDS011;42331;53.578;9.760;2023-04-01T02:53:33;19.92;;;10.65;;
56427;SDS011;42331;53.578;9.760;2023-04-01T02:56:04;18.63;;;11.10;;
56427;SDS011;42331;53.578;9.760;2023-04-01T02:58:35;21.40;;;10.88;;
56427;SDS011;42331;53.578;9.760;2023-04-01T03:01:06;24.02;;;11.27;;
56427;SDS011;42331;53.578;9.760;2023-04-01T03:06:09;23.50;;;10.45;;
56427;SDS011;42331;53.578;9.760;2023-04-01T03:08:42;19.55;;;10.13;;
56427;SDS011;42331;53.578;9.760;2023-04-01T03:11:13;15.77;;;10.18;;
56427;SDS011;42331;53.578;9.760;2023-04-01T03:13:44;21.20;;;11.10;;
56427;SDS011;42331;53.578;9.760;2023-04-01T03:16:15;22.77;;;11.48;;
56427;SDS011;42331;53.578;9.760;2023-04-01T03:18:46;24.40;;;11.68;;
56427;SDS011;42331;53.578;9.760;2023-04-01T03:21:20;22.73;;;12.15;;
56427;SDS011;42331;53.578;9.760;2023-04-01T03:23:52;19.67;;;11.52;;
56427;SDS011;42331;53.578;9.760;2023-04-01T03:26:23;20.55;;;11.38;;
56427;SDS011;42331;53.578;9.760;2023-04-01T03:28:54;18.08;;;11.27;;
56427;SDS011;42331;53.578;9.760;2023-04-01T03:31:25;22.98;;;10.68;;
56427;SDS011;42331;53.578;9.760;2023-04-01T03:33:56;17.85;;;10.52;;
56427;SDS011;42331;53.578;9.760;2023-04-01T03:36:27;19.60;;;10.38;;
56427;SDS011;42331;53.578;9.760;2023-04-01T03:38:57;22.88;;;11.32;;
56427;SDS011;42331;53.578;9.760;2023-04-01T03:41:28;18.05;;;10.65;;
56427;SDS011;42331;53.578;9.760;2023-04-01T03:43:59;20.15;;;10.60;;
56427;SDS011;42331;53.578;9.760;2023-04-01T03:46:29;21.80;;;11.02;;
56427;SDS011;42331;53.578;9.760;2023-04-01T03:49:00;19.33;;;11.27;;
56427;SDS011;42331;53.578;9.760;2023-04-01T03:51:31;16.33;;;9.90;;
56427;SDS011;42331;53.578;9.760;2023-04-01T03:54:02;17.85;;;10.30;;
56427;SDS011;42331;53.578;9.760;2023-04-01T03:56:32;25.80;;;11.55;;
56427;SDS011;42331;53.578;9.760;2023-04-01T03:59:04;25.00;;;12.63;;
56427;SDS011;42331;53.578;9.760;2023-04-01T04:01:36;18.23;;;11.05;;
56427;SDS011;42331;53.578;9.760;2023-04-01T04:04:07;19.77;;;11.23;;
56427;SDS011;42331;53.578;9.760;2023-04-01T04:06:38;17.83;;;10.43;;
56427;SDS011;42331;53.578;9.760;2023-04-01T04:09:09;20.65;;;10.85;;
56427;SDS011;42331;53.578;9.760;2023-04-01T04:11:39;20.58;;;11.00;;
56427;SDS011;42331;53.578;9.760;2023-04-01T04:14:10;21.83;;;10.57;;
56427;SDS011;42331;53.578;9.760;2023-04-01T04:16:41;24.10;;;11.55;;
56427;SDS011;42331;53.578;9.760;2023-04-01T04:19:11;20.65;;;10.98;;
56427;SDS011;42331;53.578;9.760;2023-04-01T04:21:42;17.00;;;10.65;;
56427;SDS011;42331;53.578;9.760;2023-04-01T04:24:13;22.55;;;11.55;;
56427;SDS011;42331;53.578;9.760;2023-04-01T04:26:43;19.75;;;11.60;;
56427;SDS011;42331;53.578;9.760;2023-04-01T04:29:14;21.83;;;11.90;;
56427;SDS011;42331;53.578;9.760;2023-04-01T04:31:44;20.92;;;12.05;;
56427;SDS011;42331;53.578;9.760;2023-04-01T04:34:15;20.83;;;11.85;;
56427;SDS011;42331;53.578;9.760;2023-04-01T04:36:46;21.10;;;12.35;;
56427;SDS011;42331;53.578;9.760;2023-04-01T04:39:17;24.33;;;12.75;;
56427;SDS011;42331;53.578;9.760;2023-04-01T04:41:47;27.10;;;12.80;;
56427;SDS011;42331;53.578;9.760;2023-04-01T04:44:18;23.30;;;11.93;;
56427;SDS011;42331;53.578;9.760;2023-04-01T04:46:49;21.02;;;11.75;;
56427;SDS011;42331;53.578;9.760;2023-04-01T04:49:19;24.02;;;12.48;;
56427;SDS011;42331;53.578;9.760;2023-04-01T04:51:50;24.83;;;12.80;;
56427;SDS011;42331;53.578;9.760;2023-04-01T04:54:22;22.02;;;12.70;;
56427;SDS011;42331;53.578;9.760;2023-04-01T04:56:52;21.70;;;11.85;;
56427;SDS011;42331;53.578;9.760;2023-04-01T04:59:23;20.90;;;12.25;;
56427;SDS011;42331;53.578;9.760;2023-04-01T05:01:54;23.25;;;12.27;;
56427;SDS011;42331;53.578;9.760;2023-04-01T05:04:25;20.60;;;12.73;;
56427;SDS011;42331;53.578;9.760;2023-04-01T05:06:56;23.98;;;12.52;;
56427;SDS011;42331;53.578;9.760;2023-04-01T05:09:26;19.33;;;11.93;;
56427;SDS011;42331;53.578;9.760;2023-04-01T05:11:57;22.70;;;12.82;;
56427;SDS011;42331;53.578;9.760;2023-04-01T05:14:28;20.67;;;12.93;;
56427;SDS011;42331;53.578;9.760;2023-04-01T05:16:58;24.35;;;13.50;;
56427;SDS011;42331;53.578;9.760;2023-04-01T05:19:29;23.88;;;14.20;;
56427;SDS011;42331;53.578;9.760;2023-04-01T05:22:00;23.60;;;13.38;;
56427;SDS011;42331;53.578;9.760;2023-04-01T05:24:30;20.88;;;12.70;;
56427;SDS011;42331;53.578;9.760;2023-04-01T05:27:01;17.07;;;7.93;;
56427;SDS011;42331;53.578;9.760;2023-04-01T05:29:32;8.43;;;4.30;;
56427;SDS011;42331;53.578;9.760;2023-04-01T05:32:03;5.28;;;3.00;;
56427;SDS011;42331;53.578;9.760;2023-04-01T05:34:34;3.38;;;2.00;;
56427;SDS011;42331;53.578;9.760;2023-04-01T05:37:05;3.65;;;1.20;;
56427;SDS011;42331;53.578;9.760;2023-04-01T05:39:37;2.35;;;1.00;;
56427;SDS011;42331;53.578;9.760;2023-04-01T05:42:08;1.98;;;0.90;;
56427;SDS011;42331;53.578;9.760;2023-04-01T05:44:39;3.80;;;0.95;;
56427;SDS011;42331;53.578;9.760;2023-04-01T05:47:10;2.22;;;0.90;;
56427;SDS011;42331;53.578;9.760;2023-04-01T05:49:40;3.08;;;1.13;;
56427;SDS011;42331;53.578;9.760;2023-04-01T05:52:11;1.40;;;0.80;;
56427;SDS011;42331;53.578;9.760;2023-04-01T05:54:42;1.90;;;0.70;;
56427;SDS011;42331;53.578;9.760;2023-04-01T05:57:12;1.67;;;0.88;;
56427;SDS011;42331;53.578;9.760;2023-04-01T05:59:43;1.85;;;0.90;;
56427;SDS011;42331;53.578;9.760;2023-04-01T06:02:16;2.00;;;0.80;;
56427;SDS011;42331;53.578;9.760;2023-04-01T06:04:48;3.03;;;1.00;;
56427;SDS011;42331;53.578;9.760;2023-04-01T06:07:23;1.70;;;0.80;;
56427;SDS011;42331;53.578;9.760;2023-04-01T06:09:54;3.08;;;0.80;;
56427;SDS011;42331;53.578;9.760;2023-04-01T06:23:09;2.95;;;1.35;;
56427;SDS011;42331;53.578;9.760;2023-04-01T06:42:42;1.52;;;0.90;;
56427;SDS011;42331;53.578;9.760;2023-04-01T06:56:17;1.45;;;0.80;;
56427;SDS011;42331;53.578;9.760;2023-04-01T06:58:58;1.73;;;0.90;;
56427;SDS011;42331;53.578;9.760;2023-04-01T07:01:37;2.72;;;0.80;;
56427;SDS011;42331;53.578;9.760;2023-04-01T07:07:24;1.95;;;0.50;;
56427;SDS011;42331;53.578;9.760;2023-04-01T07:10:11;1.35;;;0.68;;
56427;SDS011;42331;53.578;9.760;2023-04-01T07:12:48;1.35;;;0.50;;
56427;SDS011;42331;53.578;9.760;2023-04-01T07:16:26;1.13;;;0.60;;
56427;SDS011;42331;53.578;9.760;2023-04-01T07:21:42;2.20;;;0.60;;
56427;SDS011;42331;53.578;9.760;2023-04-01T07:24:36;1.60;;;0.57;;
56427;SDS011;42331;53.578;9.760;2023-04-01T07:27:12;1.00;;;0.40;;
56427;SDS011;42331;53.578;9.760;2023-04-01T07:29:43;1.30;;;0.50;;
56427;SDS011;42331;53.578;9.760;2023-04-01T07:35:00;0.75;;;0.40;;
56427;SDS011;42331;53.578;9.760;2023-04-01T07:38:04;2.22;;;0.77;;
56427;SDS011;42331;53.578;9.760;2023-04-01T07:55:11;1.30;;;0.65;;
56427;SDS011;42331;53.578;9.760;2023-04-01T07:58:08;3.63;;;0.80;;
56427;SDS011;42331;53.578;9.760;2023-04-01T08:04:00;3.20;;;0.80;;
56427;SDS011;42331;53.578;9.760;2023-04-01T08:06:37;1.75;;;0.80;;
56427;SDS011;42331;53.578;9.760;2023-04-01T08:14:35;0.88;;;0.40;;
56427;SDS011;42331;53.578;9.760;2023-04-01T08:20:41;1.33;;;0.60;;
56427;SDS011;42331;53.578;9.760;2023-04-01T08:23:19;1.30;;;0.65;;
56427;SDS011;42331;53.578;9.760;2023-04-01T08:28:58;1.30;;;0.50;;
56427;SDS011;42331;53.578;9.760;2023-04-01T08:32:05;1.50;;;0.70;;
56427;SDS011;42331;53.578;9.760;2023-04-01T08:34:43;1.30;;;0.60;;
56427;SDS011;42331;53.578;9.760;2023-04-01T08:37:22;2.08;;;0.80;;
56427;SDS011;42331;53.578;9.760;2023-04-01T08:40:00;1.20;;;0.52;;
56427;SDS011;42331;53.578;9.760;2023-04-01T08:48:45;1.38;;;0.70;;
56427;SDS011;42331;53.578;9.760;2023-04-01T08:51:40;2.33;;;0.60;;
56427;SDS011;42331;53.578;9.760;2023-04-01T08:57:31;0.80;;;0.40;;
56427;SDS011;42331;53.578;9.760;2023-04-01T09:00:27;1.23;;;0.60;;
56427;SDS011;42331;53.578;9.760;2023-04-01T09:03:37;4.32;;;0.88;;
56427;SDS011;42331;53.578;9.760;2023-04-01T09:14:53;1.70;;;0.50;;
56427;SDS011;42331;53.578;9.760;2023-04-01T09:28:28;1.02;;;0.50;;
56427;SDS011;42331;53.578;9.760;2023-04-01T09:46:06;1.27;;;0.38;;
56427;SDS011;42331;53.578;9.760;2023-04-01T09:57:37;1.05;;;0.50;;
56427;SDS011;42331;53.578;9.760;2023-04-01T10:12:29;1.27;;;0.50;;
56427;SDS011;42331;53.578;9.760;2023-04-01T10:27:28;1.05;;;0.43;;
56427;SDS011;42331;53.578;9.760;2023-04-01T10:30:17;0.65;;;0.40;;
56427;SDS011;42331;53.578;9.760;2023-04-01T10:47:00;0.73;;;0.40;;
56427;SDS011;42331;53.578;9.760;2023-04-01T10:49:59;2.28;;;0.40;;
56427;SDS011;42331;53.578;9.760;2023-04-01T11:21:46;0.50;;;0.30;;
56427;SDS011;42331;53.578;9.760;2023-04-01T11:33:31;0.98;;;0.47;;
56427;SDS011;42331;53.578;9.760;2023-04-01T11:39:28;1.58;;;0.50;;
56427;SDS011;42331;53.578;9.760;2023-04-01T11:54:04;2.63;;;1.08;;
56427;SDS011;42331;53.578;9.760;2023-04-01T11:56:49;2.08;;;0.65;;
56427;SDS011;42331;53.578;9.760;2023-04-01T11:59:30;2.25;;;0.90;;
56427;SDS011;42331;53.578;9.760;2023-04-01T12:13:51;2.83;;;1.00;;
56427;SDS011;42331;53.578;9.760;2023-04-01T12:16:36;3.35;;;1.60;;
56427;SDS011;42331;53.578;9.760;2023-04-01T12:19:42;6.65;;;1.92;;
56427;SDS011;42331;53.578;9.760;2023-04-01T12:25:38;4.10;;;1.92;;
56427;SDS011;42331;53.578;9.760;2023-04-01T12:42:50;4.90;;;2.28;;
56427;SDS011;42331;53.578;9.760;2023-04-01T12:45:33;5.68;;;2.22;;
56427;SDS011;42331;53.578;9.760;2023-04-01T12:48:23;4.28;;;2.40;;
56427;SDS011;42331;53.578;9.760;2023-04-01T13:08:00;5.85;;;2.67;;
56427;SDS011;42331;53.578;9.760;2023-04-01T13:16:39;8.25;;;3.42;;
56427;SDS011;42331;53.578;9.760;2023-04-01T13:19:42;6.18;;;3.10;;
56427;SDS011;42331;53.578;9.760;2023-04-01T13:25:06;8.18;;;3.60;;
56427;SDS011;42331;53.578;9.760;2023-04-01T13:28:01;7.15;;;3.58;;
56427;SDS011;42331;53.578;9.760;2023-04-01T13:33:54;7.43;;;3.28;;
56427;SDS011;42331;53.578;9.760;2023-04-01T13:36:43;6.82;;;3.05;;
56427;SDS011;42331;53.578;9.760;2023-04-01T13:42:26;4.78;;;2.58;;
56427;SDS011;42331;53.578;9.760;2023-04-01T13:57:18;6.55;;;2.83;;
56427;SDS011;42331;53.578;9.760;2023-04-01T14:00:11;8.07;;;3.17;;
56427;SDS011;42331;53.578;9.760;2023-04-01T14:05:47;6.50;;;3.42;;
56427;SDS011;42331;53.578;9.760;2023-04-01T14:13:59;5.68;;;2.75;;
56427;SDS011;42331;53.578;9.760;2023-04-01T14:17:02;6.28;;;2.78;;
56427;SDS011;42331;53.578;9.760;2023-04-01T14:28:18;7.72;;;3.35;;
56427;SDS011;42331;53.578;9.760;2023-04-01T14:34:05;7.07;;;3.42;;
56427;SDS011;42331;53.578;9.760;2023-04-01T14:37:34;4.68;;;2.55;;
56427;SDS011;42331;53.578;9.760;2023-04-01T14:48:22;7.13;;;3.60;;
56427;SDS011;42331;53.578;9.760;2023-04-01T14:51:30;7.72;;;3.85;;
56427;SDS011;42331;53.578;9.760;2023-04-01T14:57:01;7.82;;;3.67;;
56427;SDS011;42331;53.578;9.760;2023-04-01T15:00:12;7.55;;;3.45;;
56427;SDS011;42331;53.578;9.760;2023-04-01T15:05:39;9.57;;;4.35;;
56427;SDS011;42331;53.578;9.760;2023-04-01T15:10:57;9.07;;;3.65;;
56427;SDS011;42331;53.578;9.760;2023-04-01T15:29:38;10.00;;;3.70;;
56427;SDS011;42331;53.578;9.760;2023-04-01T15:32:40;6.22;;;2.90;;
56427;SDS011;42331;53.578;9.760;2023-04-01T15:38:26;6.60;;;3.10;;
56427;SDS011;42331;53.578;9.760;2023-04-01T15:41:16;8.88;;;3.10;;
56427;SDS011;42331;53.578;9.760;2023-04-01T15:43:52;12.30;;;4.38;;
56427;SDS011;42331;53.578;9.760;2023-04-01T15:49:41;7.82;;;3.63;;
56427;SDS011;42331;53.578;9.760;2023-04-01T15:52:19;9.90;;;4.28;;
56427;SDS011;42331;53.578;9.760;2023-04-01T16:01:09;8.63;;;4.05;;
56427;SDS011;42331;53.578;9.760;2023-04-01T16:20:57;10.15;;;4.65;;
56427;SDS011;42331;53.578;9.760;2023-04-01T16:23:50;9.15;;;4.00;;
56427;SDS011;42331;53.578;9.760;2023-04-01T16:26:44;9.88;;;3.80;;
56427;SDS011;42331;53.578;9.760;2023-04-01T16:29:25;9.05;;;3.85;;
56427;SDS011;42331;53.578;9.760;2023-04-01T16:48:45;7.70;;;3.58;;
56427;SDS011;42331;53.578;9.760;2023-04-01T16:51:33;7.13;;;3.58;;
56427;SDS011;42331;53.578;9.760;2023-04-01T16:54:30;12.45;;;4.13;;
56427;SDS011;42331;53.578;9.760;2023-04-01T16:57:37;7.55;;;3.55;;
56427;SDS011;42331;53.578;9.760;2023-04-01T17:00:41;7.55;;;3.78;;
56427;SDS011;42331;53.578;9.760;2023-04-01T17:03:49;7.28;;;3.50;;
56427;SDS011;42331;53.578;9.760;2023-04-01T17:18:10;8.27;;;3.55;;
56427;SDS011;42331;53.578;9.760;2023-04-01T17:21:06;8.35;;;4.00;;
56427;SDS011;42331;53.578;9.760;2023-04-01T17:29:31;9.15;;;3.42;;
56427;SDS011;42331;53.578;9.760;2023-04-01T17:32:31;7.45;;;3.42;;
56427;SDS011;42331;53.578;9.760;2023-04-01T17:35:09;7.30;;;2.80;;
56427;SDS011;42331;53.578;9.760;2023-04-01T17:49:39;7.40;;;2.67;;
56427;SDS011;42331;53.578;9.760;2023-04-01T17:52:34;6.38;;;2.75;;
56427;SDS011;42331;53.578;9.760;2023-04-01T17:58:44;7.43;;;2.67;;
56427;SDS011;42331;53.578;9.760;2023-04-01T18:12:51;8.05;;;3.30;;
56427;SDS011;42331;53.578;9.760;2023-04-01T18:39:00;11.48;;;3.65;;
56427;SDS011;42331;53.578;9.760;2023-04-01T18:48:03;4.63;;;2.22;;
56427;SDS011;42331;53.578;9.760;2023-04-01T18:56:59;6.20;;;2.60;;
56427;SDS011;42331;53.578;9.760;2023-04-01T18:59:55;7.82;;;2.90;;
56427;SDS011;42331;53.578;9.760;2023-04-01T19:02:48;6.47;;;2.88;;
56427;SDS011;42331;53.578;9.760;2023-04-01T19:05:34;9.35;;;2.97;;
56427;SDS011;42331;53.578;9.760;2023-04-01T19:08:26;6.80;;;2.40;;
56427;SDS011;42331;53.578;9.760;2023-04-01T19:16:49;6.28;;;2.88;;
56427;SDS011;42331;53.578;9.760;2023-04-01T19:22:35;7.22;;;3.00;;
56427;SDS011;42331;53.578;9.760;2023-04-01T19:25:15;7.05;;;2.90;;
56427;SDS011;42331;53.578;9.760;2023-04-01T19:28:20;6.57;;;2.90;;
56427;SDS011;42331;53.578;9.760;2023-04-01T19:31:03;9.55;;;3.08;;
56427;SDS011;42331;53.578;9.760;2023-04-01T19:34:02;8.45;;;2.90;;
56427;SDS011;42331;53.578;9.760;2023-04-01T19:36:56;9.93;;;2.78;;
56427;SDS011;42331;53.578;9.760;2023-04-01T19:53:51;7.38;;;2.22;;
56427;SDS011;42331;53.578;9.760;2023-04-01T19:56:24;6.68;;;2.58;;
56427;SDS011;42331;53.578;9.760;2023-04-01T19:59:19;7.22;;;2.22;;
56427;SDS011;42331;53.578;9.760;2023-04-01T20:04:49;7.65;;;2.30;;
56427;SDS011;42331;53.578;9.760;2023-04-01T20:07:30;7.75;;;2.70;;
56427;SDS011;42331;53.578;9.760;2023-04-01T20:10:09;5.28;;;2.30;;
56427;SDS011;42331;53.578;9.760;2023-04-01T20:15:36;8.05;;;2.47;;
56427;SDS011;42331;53.578;9.760;2023-04-01T20:18:54;4.78;;;2.10;;
56427;SDS011;42331;53.578;9.760;2023-04-01T20:23:53;5.03;;;2.25;;
56427;SDS011;42331;53.578;9.760;2023-04-01T20:26:32;6.68;;;2.65;;
56427;SDS011;42331;53.578;9.760;2023-04-01T20:29:18;5.75;;;2.72;;
56427;SDS011;42331;53.578;9.760;2023-04-01T20:31:57;8.20;;;2.80;;
56427;SDS011;42331;53.578;9.760;2023-04-01T20:37:54;6.07;;;2.30;;
56427;SDS011;42331;53.578;9.760;2023-04-01T20:40:49;8.80;;;2.78;;
56427;SDS011;42331;53.578;9.760;2023-04-01T20:46:45;5.40;;;2.47;;
56427;SDS011;42331;53.578;9.760;2023-04-01T21:03:41;4.18;;;1.80;;
56427;SDS011;42331;53.578;9.760;2023-04-01T21:31:45;7.63;;;2.30;;
56427;SDS011;42331;53.578;9.760;2023-04-01T21:45:50;8.57;;;1.90;;
56427;SDS011;42331;53.578;9.760;2023-04-01T21:48:51;6.45;;;2.30;;
56427;SDS011;42331;53.578;9.760;2023-04-01T22:11:44;9.30;;;1.98;;
56427;SDS011;42331;53.578;9.760;2023-04-01T22:14:34;5.25;;;1.67;;
56427;SDS011;42331;53.578;9.760;2023-04-01T22:17:35;6.60;;;2.00;;
56427;SDS011;42331;53.578;9.760;2023-04-01T22:22:58;4.45;;;1.55;;
56427;SDS011;42331;53.578;9.760;2023-04-01T22:28:31;7.32;;;1.50;;
56427;SDS011;42331;53.578;9.760;2023-04-01T22:31:26;6.70;;;1.60;;
56427;SDS011;42331;53.578;9.760;2023-04-01T22:34:05;6.82;;;1.70;;
56427;SDS011;42331;53.578;9.760;2023-04-01T22:36:48;7.47;;;1.33;;
56427;SDS011;42331;53.578;9.760;2023-04-01T22:45:30;5.50;;;0.93;;
56427;SDS011;42331;53.578;9.760;2023-04-01T22:48:27;5.40;;;1.33;;
56427;SDS011;42331;53.578;9.760;2023-04-01T22:56:27;6.17;;;1.77;;
56427;SDS011;42331;53.578;9.760;2023-04-01T23:01:49;7.90;;;1.40;;
56427;SDS011;42331;53.578;9.760;2023-04-01T23:04:31;5.82;;;1.42;;
56427;SDS011;42331;53.578;9.760;2023-04-01T23:07:19;5.97;;;2.00;;
56427;SDS011;42331;53.578;9.760;2023-04-01T23:09:54;6.82;;;1.50;;
56427;SDS011;42331;53.578;9.760;2023-04-01T23:12:27;6.90;;;1.23;;
56427;SDS011;42331;53.578;9.760;2023-04-01T23:15:00;5.13;;;1.13;;
56427;SDS011;42331;53.578;9.760;2023-04-01T23:17:34;10.20;;;1.40;;
56427;SDS011;42331;53.578;9.760;2023-04-01T23:20:24;8.95;;;1.63;;
56427;SDS011;42331;53.578;9.760;2023-04-01T23:26:20;4.68;;;1.15;;
56427;SDS011;42331;53.578;9.760;2023-04-01T23:29:02;8.55;;;1.63;;
56427;SDS011;42331;53.578;9.760;2023-04-01T23:31:36;8.38;;;1.40;;
56427;SDS011;42331;53.578;9.760;2023-04-01T23:34:20;7.63;;;1.48;;
56427;SDS011;42331;53.578;9.760;2023-04-01T23:37:02;5.75;;;1.35;;
56427;SDS011;42331;53.578;9.760;2023-04-01T23:39:44;9.15;;;1.15;;
56427;SDS011;42331;53.578;9.760;2023-04-01T23:45:04;3.67;;;0.82;;
56427;SDS011;42331;53.578;9.760;2023-04-01T23:47:43;2.00;;;0.88;;
56427;SDS011;42331;53.578;9.760;2023-04-01T23:50:18;5.68;;;0.90;;
56427;SDS011;42331;53.578;9.760;2023-04-01T23:52:53;8.63;;;1.25;;
56427;SDS011;42331;53.578;9.760;2023-04-01T23:55:33;5.15;;;1.65;;
